Time;durP1;ratioP1;P1;durP2;ratioP2;P2;SDS_P1;SDS_P2;PMS_P1;PMS_P2;Temp;Humidity;BMP_temperature;BMP_pressure;BME280_temperature;BME280_humidity;BME280_pressure;Samples;Min_cycle;Max_cycle;Signal;HPM_P1;HPM_P2
2022/01/29 00:02:06;;;;;;;12.35;7.00;;;;;;;-2.49;77.01;93761.25;5043565;28;20029;-35
2022/01/29 00:04:32;;;;;;;21.50;8.88;;;;;;;-2.16;77.03;93761.22;5038490;28;20102;-35
2022/01/29 00:06:57;;;;;;;21.55;11.43;;;;;;;-2.06;76.82;93762.69;5041248;28;20647;-36
2022/01/29 00:09:23;;;;;;;12.85;8.30;;;;;;;-2.57;75.74;93763.53;5043723;28;20031;-35
2022/01/29 00:11:49;;;;;;;14.80;7.88;;;;;;;-2.70;76.90;93762.22;5043990;28;20139;-36
2022/01/29 00:14:14;;;;;;;16.70;9.07;;;;;;;-2.39;77.26;93765.41;5035964;28;20049;-35
2022/01/29 00:16:41;;;;;;;14.82;8.38;;;;;;;-2.64;77.04;93752.31;5049568;28;20118;-35
2022/01/29 00:19:07;;;;;;;15.20;9.18;;;;;;;-2.40;77.12;93758.50;5051195;28;20033;-35
2022/01/29 00:21:33;;;;;;;16.42;9.77;;;;;;;-2.59;76.74;93754.38;5033138;28;20072;-35
2022/01/29 00:23:58;;;;;;;16.83;8.57;;;;;;;-2.42;76.24;93752.78;5032703;28;20513;-35
2022/01/29 00:26:26;;;;;;;15.48;7.95;;;;;;;-2.36;76.78;93753.69;5032482;28;20032;-35
2022/01/29 00:28:52;;;;;;;17.92;9.38;;;;;;;-2.65;77.26;93761.59;5033074;28;20033;-35
2022/01/29 00:31:18;;;;;;;22.15;10.63;;;;;;;-2.75;77.41;93765.56;5033033;28;20400;-35
2022/01/29 00:33:44;;;;;;;27.83;13.40;;;;;;;-2.69;77.53;93769.13;5032622;28;20118;-35
2022/01/29 00:36:09;;;;;;;27.88;14.30;;;;;;;-2.85;77.98;93777.59;5032684;28;20084;-35
2022/01/29 00:38:35;;;;;;;28.33;12.93;;;;;;;-2.61;78.56;93778.41;5032826;28;20033;-35
2022/01/29 00:41:01;;;;;;;20.90;10.38;;;;;;;-2.61;77.36;93737.88;5032503;28;20465;-35
2022/01/29 00:43:27;;;;;;;15.10;8.93;;;;;;;-2.48;77.40;93763.50;5032457;28;20029;-35
2022/01/29 00:45:53;;;;;;;19.55;11.02;;;;;;;-2.51;77.54;93767.09;5032241;28;20098;-35
2022/01/29 00:48:19;;;;;;;14.57;8.32;;;;;;;-2.69;76.81;93769.13;5032269;28;20076;-35
2022/01/29 00:50:44;;;;;;;14.05;8.43;;;;;;;-2.97;78.22;93743.41;5031491;28;20029;-35
2022/01/29 00:53:10;;;;;;;22.42;8.32;;;;;;;-2.81;79.23;93778.16;5050863;28;20111;-35
2022/01/29 00:55:36;;;;;;;12.93;7.63;;;;;;;-2.68;78.46;93765.22;5052442;28;20072;-35
2022/01/29 00:58:01;;;;;;;13.63;6.70;;;;;;;-2.50;78.52;93771.31;5052154;28;20425;-35
2022/01/29 01:00:27;;;;;;;12.80;6.55;;;;;;;-2.53;78.19;93772.22;5052369;28;20120;-34
2022/01/29 01:02:52;;;;;;;11.60;6.53;;;;;;;-2.63;78.77;93768.06;5051985;28;20044;-34
2022/01/29 01:05:18;;;;;;;13.00;6.60;;;;;;;-2.52;79.11;93768.31;5052382;28;20032;-34
2022/01/29 01:07:44;;;;;;;14.05;7.47;;;;;;;-2.42;79.10;93775.19;5044552;28;20049;-34
2022/01/29 01:10:11;;;;;;;13.30;6.88;;;;;;;-2.23;77.96;93769.69;5031906;28;20041;-34
2022/01/29 01:12:37;;;;;;;9.40;6.45;;;;;;;-2.17;77.14;93771.31;5012184;28;20530;-35
2022/01/29 01:15:06;;;;;;;13.50;7.25;;;;;;;-2.46;76.87;93760.31;5012063;28;20033;-34
2022/01/29 01:17:32;;;;;;;18.55;8.00;;;;;;;-2.58;77.55;93759.34;5012275;28;20028;-34
2022/01/29 01:19:58;;;;;;;14.23;7.40;;;;;;;-2.60;78.10;93769.84;5011895;28;20043;-34
2022/01/29 01:22:23;;;;;;;12.55;6.50;;;;;;;-2.68;77.37;93763.25;5011972;28;20026;-34
2022/01/29 01:24:49;;;;;;;12.52;6.82;;;;;;;-2.81;78.18;93760.00;5012225;28;20030;-34
2022/01/29 01:27:15;;;;;;;10.27;6.80;;;;;;;-2.60;77.40;93758.28;5022617;28;20513;-34
2022/01/29 01:29:41;;;;;;;13.27;7.07;;;;;;;-3.03;77.65;93759.47;5031830;28;20028;-34
2022/01/29 01:32:10;;;;;;;11.68;6.70;;;;;;;-3.11;78.02;93759.03;5030822;28;20031;-34
2022/01/29 01:34:39;;;;;;;21.55;11.60;;;;;;;-2.90;77.44;93759.31;5031875;28;20096;-35
2022/01/29 01:37:09;;;;;;;16.20;7.65;;;;;;;-3.10;77.26;93749.00;5031520;28;20093;-34
2022/01/29 01:39:37;;;;;;;13.65;6.65;;;;;;;-3.42;78.52;93738.88;5031497;28;20487;-34
2022/01/29 01:42:05;;;;;;;12.30;7.03;;;;;;;-3.39;79.03;93748.75;5031561;28;20033;-34
2022/01/29 01:44:39;;;;;;;9.85;5.90;;;;;;;-3.71;79.25;93720.44;5031468;28;20531;-34
2022/01/29 01:47:05;;;;;;;11.27;5.80;;;;;;;-3.43;79.25;93746.22;5031350;28;20017;-35
2022/01/29 01:49:30;;;;;;;19.38;9.43;;;;;;;-3.44;80.19;93746.63;5031290;28;20562;-35
2022/01/29 01:51:57;;;;;;;14.27;7.78;;;;;;;-3.16;80.78;93748.84;5031096;28;20075;-35
2022/01/29 01:54:23;;;;;;;20.17;7.40;;;;;;;-3.12;80.77;93717.03;5013824;28;20108;-35
2022/01/29 01:56:48;;;;;;;11.52;6.90;;;;;;;-2.74;79.81;93757.00;5031489;28;20108;-35
2022/01/29 01:59:14;;;;;;;10.35;5.75;;;;;;;-2.60;78.00;93750.19;5030948;28;20032;-35
2022/01/29 02:01:39;;;;;;;9.05;6.50;;;;;;;-2.58;77.61;93753.19;5030625;28;20041;-35
2022/01/29 02:04:05;;;;;;;13.18;7.13;;;;;;;-2.61;77.54;93748.69;5022850;28;20021;-35
2022/01/29 02:06:30;;;;;;;9.05;5.22;;;;;;;-2.88;77.68;93748.78;5011308;28;20497;-35
2022/01/29 02:08:59;;;;;;;10.35;5.55;;;;;;;-2.77;77.91;93744.38;5011131;28;20503;-35
2022/01/29 02:11:27;;;;;;;8.52;6.00;;;;;;;-2.62;77.45;93745.22;5021084;28;20049;-35
2022/01/29 02:13:54;;;;;;;11.18;7.35;;;;;;;-2.86;77.58;93744.44;5039369;28;20025;-34
2022/01/29 02:16:19;;;;;;;10.10;5.95;;;;;;;-2.79;77.64;93751.44;5047503;28;20028;-35
2022/01/29 02:18:45;;;;;;;15.43;7.63;;;;;;;-2.92;78.41;93750.91;5036512;28;20071;-35
2022/01/29 02:21:11;;;;;;;12.55;8.38;;;;;;;-2.98;79.04;93758.09;5047154;28;20025;-35
2022/01/29 02:23:37;;;;;;;15.00;7.97;;;;;;;-2.94;79.32;93754.03;5030565;28;20124;-35
2022/01/29 02:26:02;;;;;;;12.85;7.68;;;;;;;-3.03;79.87;93756.75;5033111;28;20127;-34
2022/01/29 02:28:28;;;;;;;16.38;7.35;;;;;;;-2.91;79.92;93752.38;5030546;28;20029;-35
2022/01/29 02:31:01;;;;;;;17.58;11.05;;;;;;;-2.81;80.49;93761.97;5030545;28;20018;-35
2022/01/29 02:33:27;;;;;;;18.67;10.73;;;;;;;-2.55;80.02;93761.13;5030526;28;20040;-34
2022/01/29 02:35:54;;;;;;;12.95;7.90;;;;;;;-2.41;79.87;93762.41;5030536;28;20053;-35
2022/01/29 02:38:23;;;;;;;13.98;8.80;;;;;;;-2.51;79.27;93760.94;5030629;28;20022;-35
2022/01/29 02:40:51;;;;;;;15.07;8.02;;;;;;;-2.67;79.64;93755.91;5030369;28;20025;-35
2022/01/29 02:43:27;;;;;;;14.15;7.57;;;;;;;-2.68;80.13;93759.81;5030359;28;20502;-35
2022/01/29 02:45:54;;;;;;;16.85;8.68;;;;;;;-2.44;80.15;93768.72;5030504;28;20040;-34
2022/01/29 02:48:20;;;;;;;14.15;8.80;;;;;;;-2.27;79.10;93775.25;5030552;28;20025;-34
2022/01/29 02:50:47;;;;;;;15.40;9.40;;;;;;;-2.07;78.61;93774.69;5030526;28;20079;-34
2022/01/29 02:53:13;;;;;;;15.95;8.27;;;;;;;-1.98;77.94;93761.88;5030159;28;20025;-35
2022/01/29 02:55:39;;;;;;;15.48;9.35;;;;;;;-2.04;77.78;93761.00;5030197;28;20057;-34
2022/01/29 02:58:04;;;;;;;15.07;7.65;;;;;;;-1.81;77.39;93773.78;5029868;28;20029;-34
2022/01/29 03:00:30;;;;;;;25.38;12.95;;;;;;;-1.73;77.53;93771.47;5039523;28;20028;-34
2022/01/29 03:02:55;;;;;;;17.42;9.77;;;;;;;-1.73;76.04;93774.16;5049915;28;20021;-34
2022/01/29 03:05:21;;;;;;;16.55;10.35;;;;;;;-1.70;76.21;93767.84;5049903;28;20021;-35
2022/01/29 03:07:47;;;;;;;20.75;12.63;;;;;;;-1.90;75.69;93773.09;5049843;28;20032;-35
2022/01/29 03:10:13;;;;;;;27.13;13.25;;;;;;;-1.88;76.17;93774.13;5049604;28;20108;-35
2022/01/29 03:12:40;;;;;;;28.77;13.75;;;;;;;-1.77;75.58;93768.19;5049162;28;20024;-35
2022/01/29 03:15:07;;;;;;;34.28;18.55;;;;;;;-1.76;75.43;93772.41;5046373;28;20549;-34
2022/01/29 03:17:32;;;;;;;46.55;21.70;;;;;;;-1.90;75.77;93783.91;5029670;28;20029;-35
2022/01/29 03:19:58;;;;;;;39.47;19.88;;;;;;;-1.82;75.92;93776.97;5030005;28;20029;-35
2022/01/29 03:22:23;;;;;;;30.00;16.55;;;;;;;-2.06;76.18;93776.97;5029898;28;20548;-35
2022/01/29 03:24:49;;;;;;;24.90;13.07;;;;;;;-2.38;77.07;93783.09;5029889;28;20053;-35
2022/01/29 03:27:14;;;;;;;22.50;12.90;;;;;;;-2.58;78.39;93791.03;5029432;28;20483;-35
2022/01/29 03:29:40;;;;;;;25.33;14.07;;;;;;;-2.59;78.94;93781.41;5029766;28;20067;-35
2022/01/29 03:32:06;;;;;;;24.55;12.43;;;;;;;-2.61;79.25;93789.22;5029849;28;20034;-35
2022/01/29 03:34:31;;;;;;;20.85;11.43;;;;;;;-2.48;79.41;93787.06;5029755;28;20037;-35
2022/01/29 03:36:58;;;;;;;22.35;10.88;;;;;;;-2.55;79.73;93780.03;5029670;28;20026;-35
2022/01/29 03:39:26;;;;;;;22.70;11.95;;;;;;;-2.54;79.51;93783.50;5029583;28;20032;-35
2022/01/29 03:41:52;;;;;;;21.50;10.90;;;;;;;-2.68;80.12;93782.19;5029617;28;20410;-35
2022/01/29 03:44:18;;;;;;;20.45;13.00;;;;;;;-2.66;80.22;93787.13;5029654;28;20032;-36
2022/01/29 03:46:45;;;;;;;20.65;12.90;;;;;;;-2.62;80.47;93776.94;5029597;28;20025;-35
2022/01/29 03:49:10;;;;;;;19.70;11.30;;;;;;;-2.62;80.38;93777.66;5029555;28;20017;-36
2022/01/29 03:51:36;;;;;;;19.85;10.68;;;;;;;-2.46;79.86;93788.13;5029391;28;20021;-36
2022/01/29 03:54:02;;;;;;;22.20;10.23;;;;;;;-2.39;79.81;93781.63;5028587;28;20022;-36
2022/01/29 03:56:27;;;;;;;21.20;11.00;;;;;;;-2.13;78.88;93782.69;5029619;28;20025;-36
2022/01/29 03:58:52;;;;;;;15.00;8.23;;;;;;;-2.02;78.47;93779.50;5029525;28;20036;-35
2022/01/29 04:01:18;;;;;;;20.17;10.77;;;;;;;-2.26;78.51;93760.53;5029821;28;20028;-35
2022/01/29 04:03:44;;;;;;;20.25;11.00;;;;;;;-2.23;79.21;93785.91;5029526;28;20672;-35
2022/01/29 04:06:10;;;;;;;130.85;41.80;;;;;;;-2.38;79.55;93780.41;5029306;28;20021;-35
2022/01/29 04:08:40;;;;;;;58.17;25.40;;;;;;;-2.41;79.93;93784.03;5029442;28;20104;-35
2022/01/29 04:11:11;;;;;;;34.00;16.58;;;;;;;-2.42;80.04;93787.94;5029368;28;20489;-35
2022/01/29 04:13:42;;;;;;;22.92;13.52;;;;;;;-2.33;79.25;93763.56;5029562;28;20109;-35
2022/01/29 04:16:08;;;;;;;25.00;14.00;;;;;;;-2.01;78.19;93786.38;5041140;28;20039;-35
2022/01/29 04:18:34;;;;;;;17.45;11.70;;;;;;;-1.95;78.02;93785.28;5049138;28;20099;-35
2022/01/29 04:21:00;;;;;;;15.82;10.77;;;;;;;-1.96;77.99;93789.22;5031616;28;20024;-35
2022/01/29 04:23:25;;;;;;;29.33;14.93;;;;;;;-2.05;78.08;93778.44;5049572;28;20096;-35
2022/01/29 04:25:53;;;;;;;22.63;13.90;;;;;;;-1.95;78.13;93771.75;5052946;28;20021;-35
2022/01/29 04:28:21;;;;;;;23.15;13.23;;;;;;;-2.18;78.49;93783.31;5033087;28;20029;-35
2022/01/29 04:30:53;;;;;;;25.85;14.18;;;;;;;-1.93;78.02;93780.19;5033040;28;20481;-35
2022/01/29 04:35:44;;;;;;;27.60;15.55;;;;;;;-1.77;77.02;93793.31;5032928;28;20083;-35
2022/01/29 04:38:10;;;;;;;20.38;12.50;;;;;;;-2.00;77.31;93785.94;5032727;28;20028;-35
2022/01/29 04:40:36;;;;;;;19.67;12.68;;;;;;;-1.92;77.16;93792.50;5032864;28;20045;-36
2022/01/29 04:43:03;;;;;;;17.20;9.82;;;;;;;-1.64;76.89;93788.41;5032494;28;20679;-36
2022/01/29 04:45:29;;;;;;;16.23;10.07;;;;;;;-1.77;76.71;93792.53;5032770;28;20427;-35
2022/01/29 04:47:54;;;;;;;14.10;9.07;;;;;;;-2.12;78.49;93788.88;5032460;28;20024;-34
2022/01/29 04:50:20;;;;;;;43.17;27.30;;;;;;;-2.14;78.80;93796.69;5032284;28;20021;-35
2022/01/29 04:52:45;;;;;;;24.05;15.02;;;;;;;-2.11;78.32;93796.50;5039855;28;20059;-35
2022/01/29 04:55:11;;;;;;;42.50;22.70;;;;;;;-2.14;78.84;93792.00;5052134;28;20646;-35
2022/01/29 04:57:37;;;;;;;47.88;25.15;;;;;;;-2.42;79.62;93788.69;5052353;28;20035;-35
2022/01/29 05:00:09;;;;;;;38.42;19.17;;;;;;;-2.33;79.47;93793.31;5051901;28;20487;-35
2022/01/29 05:02:35;;;;;;;32.70;16.15;;;;;;;-2.37;79.89;93785.38;5038031;28;20079;-35
2022/01/29 05:05:01;;;;;;;24.38;13.13;;;;;;;-2.15;79.19;93798.66;5032513;28;20033;-35
2022/01/29 05:07:26;;;;;;;21.98;12.15;;;;;;;-2.34;79.12;93791.84;5032373;28;20467;-34
2022/01/29 05:09:52;;;;;;;35.45;18.20;;;;;;;-2.45;80.03;93794.28;5031920;28;20048;-35
2022/01/29 05:12:24;;;;;;;29.27;15.70;;;;;;;-2.37;80.41;93790.78;5031878;28;20095;-35
2022/01/29 05:15:08;;;;;;;26.95;14.35;;;;;;;-2.34;80.75;93797.97;5031969;28;20035;-35
2022/01/29 05:28:29;;;;;;;20.27;11.35;;;;;;;-2.04;80.01;93817.81;5031901;28;20033;-35
2022/01/29 05:30:55;;;;;;;21.75;13.85;;;;;;;-2.07;79.62;93809.88;5031645;28;20033;-35
2022/01/29 05:33:20;;;;;;;18.38;9.77;;;;;;;-1.97;79.31;93817.47;5031986;28;20026;-35
2022/01/29 05:35:46;;;;;;;33.47;17.75;;;;;;;-1.81;79.09;93821.75;5031078;28;20039;-35
2022/01/29 05:38:11;;;;;;;15.15;8.60;;;;;;;-1.69;78.48;93823.50;5031671;28;20059;-35
2022/01/29 05:40:37;;;;;;;10.18;7.78;;;;;;;-1.58;78.15;93813.63;5031846;28;20518;-35
2022/01/29 05:43:02;;;;;;;17.75;10.80;;;;;;;-1.60;78.33;93816.03;5031786;28;20025;-35
2022/01/29 05:45:28;;;;;;;21.90;11.88;;;;;;;-1.75;78.17;93817.19;5031426;28;20502;-34
2022/01/29 05:47:53;;;;;;;26.70;13.05;;;;;;;-1.93;79.08;93818.06;5044287;28;20036;-35
2022/01/29 05:50:19;;;;;;;29.10;14.38;;;;;;;-1.75;78.86;93823.34;5032989;28;20036;-35
2022/01/29 05:52:44;;;;;;;24.30;14.20;;;;;;;-1.67;77.76;93824.50;5031263;28;20403;-35
2022/01/29 05:55:10;;;;;;;22.77;12.32;;;;;;;-1.98;78.12;93826.06;5031272;28;20021;-36
2022/01/29 05:57:35;;;;;;;21.42;12.60;;;;;;;-2.15;78.98;93820.28;5031114;28;20076;-36
2022/01/29 06:00:01;;;;;;;19.98;13.75;;;;;;;-2.26;80.03;93822.72;5031345;28;20030;-36
2022/01/29 06:02:26;;;;;;;20.52;11.88;;;;;;;-2.31;80.70;93812.53;5031070;28;20025;-35
2022/01/29 06:04:52;;;;;;;24.98;13.48;;;;;;;-2.27;80.74;93823.19;5031428;28;20068;-36
2022/01/29 06:07:17;;;;;;;19.88;13.60;;;;;;;-2.32;81.20;93824.56;5031248;28;20458;-35
2022/01/29 06:09:45;;;;;;;21.10;11.98;;;;;;;-2.25;81.46;93824.22;5031121;28;20033;-35
2022/01/29 06:12:10;;;;;;;23.98;15.18;;;;;;;-2.22;81.62;93827.97;5030614;28;20518;-35
2022/01/29 06:14:36;;;;;;;20.25;11.75;;;;;;;-2.10;82.01;93835.13;5030797;28;20065;-35
2022/01/29 06:17:01;;;;;;;25.95;13.48;;;;;;;-1.94;81.97;93846.31;5050423;28;20060;-35
2022/01/29 06:19:27;;;;;;;28.67;14.90;;;;;;;-1.77;81.63;93857.50;5050820;28;20025;-36
2022/01/29 06:21:52;;;;;;;40.92;19.15;;;;;;;-1.68;81.59;93849.34;5050780;28;20513;-35
2022/01/29 06:24:18;;;;;;;31.13;16.63;;;;;;;-1.64;81.50;93858.03;5050486;28;20479;-34
2022/01/29 06:26:44;;;;;;;34.75;18.33;;;;;;;-1.35;80.81;93860.88;5040754;28;20045;-35
2022/01/29 06:29:09;;;;;;;28.92;17.52;;;;;;;-1.20;80.04;93860.91;5030627;28;20021;-36
2022/01/29 06:31:35;;;;;;;33.58;20.30;;;;;;;-1.05;79.89;93861.69;5030763;28;20025;-35
2022/01/29 06:34:00;;;;;;;29.17;16.27;;;;;;;-0.89;78.90;93872.09;5030321;28;20053;-35
2022/01/29 06:36:26;;;;;;;22.30;13.25;;;;;;;-1.38;78.64;93829.28;5030692;28;20021;-35
2022/01/29 06:38:51;;;;;;;21.67;12.48;;;;;;;-1.10;79.21;93873.16;5030659;28;20564;-35
2022/01/29 06:41:17;;;;;;;18.85;11.32;;;;;;;-1.08;79.08;93878.84;5030464;28;20427;-35
2022/01/29 06:43:42;;;;;;;15.55;10.13;;;;;;;-0.91;78.83;93882.66;5030345;28;20431;-36
2022/01/29 06:46:08;;;;;;;28.42;17.65;;;;;;;-0.87;78.33;93886.66;5030093;28;20037;-35
2022/01/29 06:48:33;;;;;;;26.45;16.30;;;;;;;-0.70;78.17;93895.13;5030689;28;20479;-35
2022/01/29 06:50:59;;;;;;;20.98;12.48;;;;;;;-0.73;77.62;93889.88;5030466;28;20116;-35
2022/01/29 06:53:24;;;;;;;17.95;11.65;;;;;;;-0.67;78.08;93893.44;5034341;28;20120;-35
2022/01/29 06:55:50;;;;;;;21.02;14.25;;;;;;;-0.44;77.30;93890.66;5038966;28;20044;-35
2022/01/29 06:58:15;;;;;;;25.65;14.60;;;;;;;-0.34;77.38;93894.78;5042990;28;20030;-35
2022/01/29 07:00:41;;;;;;;25.63;15.88;;;;;;;-0.24;77.24;93909.00;5039363;28;20104;-35
2022/01/29 07:03:06;;;;;;;21.75;14.15;;;;;;;-0.13;75.49;93909.91;5039520;28;20029;-35
2022/01/29 07:05:32;;;;;;;16.83;11.63;;;;;;;-0.28;75.05;93873.91;5040500;28;20690;-35
2022/01/29 07:07:57;;;;;;;24.60;12.30;;;;;;;-0.43;75.59;93908.41;5035901;28;20025;-35
2022/01/29 07:10:23;;;;;;;21.38;12.90;;;;;;;-0.68;77.23;93898.13;5039778;28;20453;-35
2022/01/29 07:12:49;;;;;;;27.83;17.00;;;;;;;-0.74;76.99;93901.94;5040104;28;20022;-35
2022/01/29 07:15:14;;;;;;;22.55;13.77;;;;;;;-0.56;77.31;93912.63;5039127;28;20013;-35
2022/01/29 07:17:40;;;;;;;32.63;20.75;;;;;;;-0.53;77.63;93912.44;5038973;28;20029;-35
2022/01/29 07:20:06;;;;;;;29.55;19.30;;;;;;;-0.52;76.94;93915.91;5039075;28;20657;-36
2022/01/29 07:22:32;;;;;;;22.73;14.38;;;;;;;-0.30;76.75;93919.75;5037436;28;20021;-35
2022/01/29 07:24:58;;;;;;;36.33;22.67;;;;;;;-0.15;76.61;93917.78;5029192;28;20022;-35
2022/01/29 07:27:23;;;;;;;23.38;13.82;;;;;;;-0.24;76.33;93922.56;5041518;28;20029;-35
2022/01/29 07:29:49;;;;;;;30.27;18.92;;;;;;;-0.28;76.18;93922.72;5049694;28;20021;-35
2022/01/29 07:32:14;;;;;;;31.60;18.65;;;;;;;-0.24;76.21;93923.28;5041959;28;20100;-35
2022/01/29 07:34:40;;;;;;;35.47;19.20;;;;;;;0.05;76.29;93917.13;5029727;28;20037;-34
2022/01/29 07:37:05;;;;;;;33.28;20.33;;;;;;;0.25;75.05;93916.44;5029653;28;20112;-35
2022/01/29 07:39:31;;;;;;;39.45;24.55;;;;;;;0.07;75.18;93911.22;5029662;28;20033;-35
2022/01/29 07:41:57;;;;;;;25.45;15.98;;;;;;;0.20;75.26;93911.66;5040498;28;20035;-35
2022/01/29 07:44:23;;;;;;;17.45;11.50;;;;;;;0.39;74.67;93921.09;5049678;28;20071;-35
2022/01/29 07:46:49;;;;;;;27.38;18.05;;;;;;;0.56;73.70;93922.09;5049750;28;20112;-35
2022/01/29 07:49:15;;;;;;;27.60;16.58;;;;;;;0.65;73.57;93919.97;5049545;28;20025;-35
2022/01/29 07:51:41;;;;;;;40.03;22.67;;;;;;;0.70;73.49;93919.31;5049889;28;20040;-35
2022/01/29 07:54:06;;;;;;;47.55;25.98;;;;;;;0.89;73.04;93925.25;5049305;28;20513;-35
2022/01/29 07:56:32;;;;;;;31.80;17.75;;;;;;;0.97;72.45;93928.31;5049761;28;20052;-35
2022/01/29 07:58:58;;;;;;;21.58;16.48;;;;;;;0.95;72.50;93923.38;5050947;28;20057;-35
2022/01/29 08:01:23;;;;;;;29.05;18.08;;;;;;;0.92;71.93;93926.25;5053211;28;20429;-35
2022/01/29 08:03:50;;;;;;;39.65;21.05;;;;;;;0.73;72.47;93921.09;5053220;28;20029;-35
2022/01/29 08:06:19;;;;;;;29.90;17.98;;;;;;;0.80;72.06;93930.81;5053056;28;20658;-35
2022/01/29 08:08:45;;;;;;;60.67;31.10;;;;;;;0.58;72.74;93931.28;5053123;28;20028;-35
2022/01/29 08:11:11;;;;;;;33.75;19.80;;;;;;;0.73;72.55;93936.66;5053189;28;20053;-35
2022/01/29 08:13:37;;;;;;;22.75;12.98;;;;;;;0.58;72.92;93942.13;5053211;28;20021;-35
2022/01/29 08:16:03;;;;;;;23.80;15.23;;;;;;;0.41;73.05;93943.09;5050356;28;20421;-35
2022/01/29 08:18:28;;;;;;;25.90;18.20;;;;;;;0.44;73.07;93944.88;5052883;28;20391;-35
2022/01/29 08:20:54;;;;;;;21.70;14.07;;;;;;;0.58;73.20;93938.66;5052849;28;20032;-35
2022/01/29 08:23:19;;;;;;;15.18;11.40;;;;;;;0.39;73.01;93938.13;5052920;28;20036;-35
2022/01/29 08:25:45;;;;;;;18.70;10.85;;;;;;;0.69;72.72;93939.56;5051729;28;20044;-35
2022/01/29 08:28:10;;;;;;;16.85;11.32;;;;;;;0.96;72.54;93937.69;5033405;28;20033;-35
2022/01/29 08:30:36;;;;;;;13.60;9.68;;;;;;;1.07;71.30;93945.97;5032686;28;20017;-35
2022/01/29 08:33:02;;;;;;;18.98;12.20;;;;;;;1.21;70.22;93943.19;5014626;28;20053;-35
2022/01/29 08:35:27;;;;;;;15.50;11.20;;;;;;;1.34;71.06;93942.88;5032721;28;20025;-35
2022/01/29 08:37:57;;;;;;;25.40;13.52;;;;;;;1.67;70.37;93945.22;5040968;28;20060;-35
2022/01/29 08:40:22;;;;;;;27.40;14.70;;;;;;;1.91;69.72;93942.94;5050908;28;20437;-35
2022/01/29 08:42:48;;;;;;;17.85;11.30;;;;;;;2.30;69.32;93944.81;5051221;28;20029;-36
2022/01/29 08:45:14;;;;;;;26.80;17.00;;;;;;;2.57;66.64;93948.22;5047812;28;20038;-35
2022/01/29 08:47:40;;;;;;;23.50;13.50;;;;;;;2.68;66.23;93951.03;5041530;28;20576;-35
2022/01/29 08:50:07;;;;;;;14.20;9.75;;;;;;;2.80;65.21;93949.84;5049537;28;20526;-35
2022/01/29 08:52:33;;;;;;;17.10;11.93;;;;;;;3.05;65.59;93957.94;5050737;28;20037;-36
2022/01/29 08:54:58;;;;;;;21.73;12.05;;;;;;;3.28;64.94;93950.63;5051472;28;20039;-36
2022/01/29 08:57:24;;;;;;;15.70;11.15;;;;;;;3.66;63.10;93947.28;5052415;28;20031;-36
2022/01/29 08:59:50;;;;;;;15.75;11.63;;;;;;;4.10;62.87;93940.44;5052098;28;20025;-35
2022/01/29 09:02:16;;;;;;;16.83;11.30;;;;;;;4.33;60.65;93939.22;5051881;28;20052;-35
2022/01/29 09:04:41;;;;;;;12.20;9.13;;;;;;;4.58;58.80;93946.44;5041894;28;20036;-35
2022/01/29 09:07:09;;;;;;;14.82;10.65;;;;;;;4.73;58.32;93946.16;5041952;28;20096;-35
2022/01/29 09:09:34;;;;;;;21.88;12.65;;;;;;;4.82;58.93;93956.84;5040179;28;20032;-35
2022/01/29 09:12:01;;;;;;;21.13;13.73;;;;;;;4.69;58.61;93956.63;5041096;28;20128;-35
2022/01/29 09:14:27;;;;;;;13.77;9.50;;;;;;;4.53;58.12;93950.66;5041733;28;20033;-34
2022/01/29 09:16:52;;;;;;;15.77;10.98;;;;;;;4.48;58.78;93947.94;5039189;28;20058;-34
2022/01/29 09:19:19;;;;;;;12.93;9.85;;;;;;;4.48;58.63;93943.19;5042191;28;20068;-35
2022/01/29 09:21:45;;;;;;;14.30;9.82;;;;;;;4.60;58.50;93946.69;5047102;28;20064;-35
2022/01/29 09:24:10;;;;;;;20.45;12.07;;;;;;;4.59;59.18;93943.19;5051575;28;20063;-34
2022/01/29 09:26:36;;;;;;;14.18;10.23;;;;;;;4.52;57.87;93943.72;5045806;28;20029;-35
2022/01/29 09:29:02;;;;;;;14.48;9.35;;;;;;;4.40;58.16;93925.78;5031785;28;20111;-34
2022/01/29 09:31:28;;;;;;;11.23;9.20;;;;;;;4.48;58.50;93937.00;5034139;28;20043;-35
2022/01/29 09:33:53;;;;;;;14.68;11.10;;;;;;;4.58;58.33;93936.25;5040681;28;20498;-35
2022/01/29 09:36:21;;;;;;;13.13;9.80;;;;;;;4.75;57.63;93938.19;5036286;28;20044;-34
2022/01/29 09:38:47;;;;;;;12.77;9.48;;;;;;;4.72;58.13;93931.75;5031365;28;20021;-34
2022/01/29 09:41:13;;;;;;;16.85;10.45;;;;;;;4.76;57.93;93917.81;5031633;28;20048;-35
2022/01/29 09:43:42;;;;;;;23.02;11.85;;;;;;;5.09;57.69;93939.66;5031332;28;20026;-35
2022/01/29 09:46:07;;;;;;;22.25;14.13;;;;;;;5.16;56.33;93937.13;5014082;28;20741;-35
2022/01/29 09:48:33;;;;;;;14.10;10.07;;;;;;;5.23;56.58;93946.81;5025036;28;20047;-35
2022/01/29 09:50:59;;;;;;;15.32;11.57;;;;;;;5.47;56.43;93938.78;5051237;28;20036;-35
2022/01/29 09:53:25;;;;;;;16.75;11.10;;;;;;;5.59;55.74;93928.53;5051222;28;20029;-35
2022/01/29 09:55:51;;;;;;;22.38;12.80;;;;;;;5.89;55.13;93930.13;5051103;28;20540;-35
2022/01/29 09:58:16;;;;;;;15.90;10.77;;;;;;;6.05;52.79;93926.56;5050987;28;20032;-35
2022/01/29 10:00:42;;;;;;;12.02;7.95;;;;;;;6.31;51.10;93926.13;5038712;28;20037;-36
2022/01/29 10:03:10;;;;;;;11.90;8.32;;;;;;;6.26;51.66;93928.94;5031109;28;20156;-35
2022/01/29 10:05:44;;;;;;;9.97;7.97;;;;;;;6.50;51.31;93931.72;5045956;28;20041;-35
2022/01/29 10:08:11;;;;;;;8.65;6.80;;;;;;;6.40;51.00;93930.56;5040269;28;20026;-35
2022/01/29 10:10:38;;;;;;;10.82;7.28;;;;;;;6.17;52.35;93937.47;5030827;28;20053;-35
2022/01/29 10:13:26;;;;;;;10.02;7.55;;;;;;;6.04;52.82;93940.78;5030848;28;20041;-35
2022/01/29 10:16:04;;;;;;;12.98;9.00;;;;;;;6.07;53.31;93935.03;5040821;28;20449;-35
2022/01/29 10:18:30;;;;;;;10.20;7.50;;;;;;;5.96;50.00;93929.59;5050914;28;20029;-35
2022/01/29 10:21:25;;;;;;;13.45;8.35;;;;;;;5.78;51.21;93910.97;5050876;28;20039;-35
2022/01/29 10:24:04;;;;;;;12.15;9.20;;;;;;;5.98;52.57;93921.63;5049375;28;20064;-36
2022/01/29 10:26:33;;;;;;;11.82;8.55;;;;;;;6.50;52.88;93929.72;5045787;28;20422;-35
2022/01/29 10:28:59;;;;;;;;;;;;;;;6.72;51.87;93928.81;5032687;28;20110;-36
2022/01/29 10:31:24;;;;;;;8.75;7.38;;;;;;;6.74;51.00;93926.28;5050239;28;19977;-35
2022/01/29 10:33:50;;;;;;;11.77;8.43;;;;;;;6.53;52.49;93914.25;5047349;28;20094;-36
2022/01/29 10:36:19;;;;;;;8.90;5.90;;;;;;;6.59;50.74;93928.66;5048217;28;20526;-36
2022/01/29 10:38:53;;;;;;;15.55;9.18;;;;;;;6.34;50.81;93918.91;5048514;28;20052;-35
2022/01/29 10:41:28;;;;;;;12.93;10.30;;;;;;;6.41;51.66;93923.84;5048436;28;20093;-35
2022/01/29 10:43:58;;;;;;;11.18;9.95;;;;;;;6.67;51.21;93922.09;5047818;28;20159;-35
2022/01/29 10:46:32;;;;;;;21.67;13.35;;;;;;;7.21;50.48;93929.59;5047832;28;20537;-35
2022/01/29 10:48:58;;;;;;;13.48;8.27;;;;;;;7.20;49.26;93923.38;5047905;28;20470;-35
2022/01/29 10:51:25;;;;;;;25.90;15.80;;;;;;;7.19;48.93;93921.88;5046598;28;20085;-35
2022/01/29 10:53:53;;;;;;;11.75;7.45;;;;;;;6.87;48.65;93929.91;5047741;28;20047;-35
2022/01/29 10:56:19;;;;;;;18.58;12.45;;;;;;;6.91;49.20;93929.63;5047389;28;20112;-35
2022/01/29 10:58:47;;;;;;;9.27;7.22;;;;;;;6.77;50.47;93931.53;5047811;28;20028;-35
2022/01/29 11:01:14;;;;;;;13.60;10.95;;;;;;;7.32;50.05;93940.47;5047962;28;20032;-35
2022/01/29 11:03:40;;;;;;;15.55;10.57;;;;;;;8.14;47.80;93926.97;5048024;28;20025;-35
2022/01/29 11:06:08;;;;;;;16.83;12.52;;;;;;;8.23;46.68;93930.06;5047058;28;20041;-35
2022/01/29 11:08:34;;;;;;;8.20;5.83;;;;;;;9.35;44.91;93924.25;5046029;28;20021;-36
2022/01/29 11:11:01;;;;;;;10.38;7.30;;;;;;;10.21;42.05;93913.25;5046932;28;20504;-35
2022/01/29 11:13:26;;;;;;;12.38;8.23;;;;;;;10.07;41.34;93914.53;5046923;28;20123;-35
2022/01/29 11:15:53;;;;;;;14.57;8.85;;;;;;;9.62;42.33;93905.69;5046268;28;20795;-35
2022/01/29 11:18:19;;;;;;;7.05;5.93;;;;;;;8.98;43.16;93913.41;5027872;28;20025;-35
2022/01/29 11:20:44;;;;;;;13.68;9.45;;;;;;;8.80;43.93;93911.47;5045700;28;20036;-35
2022/01/29 11:23:10;;;;;;;16.40;11.40;;;;;;;8.60;44.47;93910.03;5028877;28;20025;-37
2022/01/29 11:25:36;;;;;;;11.38;7.38;;;;;;;9.44;42.13;93907.28;5044998;28;20105;-36
2022/01/29 11:28:22;;;;;;;10.23;8.05;;;;;;;10.34;40.48;93895.91;5009774;28;20029;-39
2022/01/29 11:31:13;;;;;;;7.05;6.20;;;;;;;11.05;38.96;93900.97;5025435;28;20765;-37
2022/01/29 11:33:57;;;;;;;24.88;16.60;;;;;;;12.26;37.05;93901.69;5027396;28;20037;-37
2022/01/29 11:36:48;;;;;;;7.72;5.43;;;;;;;12.71;35.80;93901.81;5030535;28;20422;-39